createdAt,value
2022-10-10T00:00:37.761Z,6.30
2022-10-10T00:03:04.744Z,8.33
2022-10-10T00:05:31.409Z,8.83
2022-10-10T00:07:58.053Z,8.13
2022-10-10T00:10:25.057Z,10.23
2022-10-10T00:12:52.042Z,8.77
2022-10-10T00:15:19.071Z,15.40
2022-10-10T00:17:45.802Z,6.07
2022-10-10T00:20:16.137Z,6.23
2022-10-10T00:22:42.777Z,13.80
2022-10-10T00:25:09.698Z,6.90
2022-10-10T00:27:36.640Z,9.70
2022-10-10T00:30:04.632Z,7.83
2022-10-10T00:32:31.376Z,6.73
2022-10-10T00:34:58.023Z,8.37
2022-10-10T00:37:24.718Z,5.90
2022-10-10T00:39:51.356Z,10.70
2022-10-10T00:42:18.120Z,8.80
2022-10-10T00:44:45.712Z,9.37
2022-10-10T00:47:12.616Z,8.13
2022-10-10T00:49:41.030Z,5.90
2022-10-10T00:52:09.785Z,6.80
2022-10-10T00:54:36.842Z,8.13
2022-10-10T00:57:13.054Z,7.10
2022-10-10T00:59:41.002Z,6.53
2022-10-10T01:02:07.608Z,8.60
2022-10-10T01:04:45.629Z,6.70
2022-10-10T01:07:21.511Z,5.60
2022-10-10T01:09:48.384Z,11.03
2022-10-10T01:12:23.426Z,6.63
2022-10-10T01:17:41.339Z,6.50
2022-10-10T01:20:37.900Z,9.53
2022-10-10T01:23:38.640Z,8.90
2022-10-10T01:26:31.533Z,8.43
2022-10-10T01:29:21.946Z,7.27
2022-10-10T01:31:49.248Z,6.93
2022-10-10T01:34:27.535Z,7.80
2022-10-10T01:37:21.244Z,7.47
2022-10-10T01:40:04.667Z,6.03
2022-10-10T01:42:35.677Z,7.20
2022-10-10T01:45:02.336Z,7.57
2022-10-10T01:47:28.985Z,7.47
2022-10-10T01:49:59.131Z,6.53
2022-10-10T01:52:41.935Z,10.40
2022-10-10T01:55:33.298Z,8.07
2022-10-10T01:58:21.103Z,7.60
2022-10-10T02:00:56.422Z,10.00
2022-10-10T02:03:29.290Z,6.27
2022-10-10T02:06:13.152Z,9.80
2022-10-10T02:09:03.502Z,7.27
2022-10-10T02:11:30.126Z,6.53
2022-10-10T02:14:00.488Z,9.70
2022-10-10T02:16:41.562Z,9.40
2022-10-10T02:19:09.286Z,8.13
2022-10-10T02:21:35.948Z,7.60
2022-10-10T02:24:03.925Z,7.90
2022-10-10T02:26:30.537Z,8.67
2022-10-10T02:28:59.834Z,9.97
2022-10-10T02:31:39.855Z,9.23
2022-10-10T02:34:09.898Z,12.27
2022-10-10T02:36:36.538Z,9.03
2022-10-10T02:39:03.419Z,8.83
2022-10-10T02:41:30.076Z,6.57
2022-10-10T02:43:56.777Z,10.90
2022-10-10T02:46:23.618Z,8.57
2022-10-10T02:48:50.283Z,6.40
2022-10-10T02:51:16.970Z,11.60
2022-10-10T02:53:43.618Z,9.67
2022-10-10T02:56:10.559Z,9.07
2022-10-10T02:58:37.183Z,7.73
2022-10-10T03:01:03.907Z,9.07
2022-10-10T03:03:30.627Z,8.33
2022-10-10T03:05:57.293Z,11.10
2022-10-10T03:08:23.973Z,10.20
2022-10-10T03:10:57.564Z,15.60
2022-10-10T03:13:24.392Z,10.37
2022-10-10T03:15:51.125Z,14.73
2022-10-10T03:18:17.787Z,9.43
2022-10-10T03:20:50.887Z,11.03
2022-10-10T03:23:17.536Z,11.93
2022-10-10T03:25:44.224Z,11.13
2022-10-10T03:28:11.336Z,10.47
2022-10-10T03:30:38.424Z,9.87
2022-10-10T03:33:05.637Z,11.40
2022-10-10T03:35:32.354Z,11.50
2022-10-10T03:37:59.241Z,14.43
2022-10-10T03:40:26.417Z,12.03
2022-10-10T03:42:53.494Z,12.10
2022-10-10T03:45:20.307Z,11.23
2022-10-10T03:47:46.960Z,11.33
2022-10-10T03:50:13.580Z,10.60
2022-10-10T03:52:40.236Z,12.20
2022-10-10T03:55:07.229Z,62.33
2022-10-10T03:57:33.904Z,15.73
2022-10-10T04:00:00.539Z,23.27
2022-10-10T04:02:27.184Z,10.47
2022-10-10T04:04:53.871Z,8.17
2022-10-10T04:07:20.684Z,18.37
2022-10-10T04:09:47.302Z,7.47
2022-10-10T04:12:13.980Z,12.43
2022-10-10T04:14:40.628Z,9.57
2022-10-10T04:17:07.243Z,11.27
2022-10-10T04:19:33.894Z,8.10
2022-10-10T04:22:00.539Z,8.77
2022-10-10T04:24:27.208Z,8.43
2022-10-10T04:26:53.945Z,10.30
2022-10-10T04:29:20.616Z,9.07
2022-10-10T04:31:47.317Z,11.03
2022-10-10T04:34:15.159Z,10.23
2022-10-10T04:36:42.079Z,9.77
2022-10-10T04:39:09.285Z,8.07
2022-10-10T04:41:35.907Z,9.67
2022-10-10T04:44:02.564Z,8.47
2022-10-10T04:46:29.239Z,8.70
2022-10-10T04:48:55.911Z,8.53
2022-10-10T04:51:22.680Z,7.83
2022-10-10T04:53:50.540Z,10.53
2022-10-10T04:56:17.440Z,8.77
2022-10-10T04:58:44.034Z,16.50
2022-10-10T05:01:10.680Z,10.13
2022-10-10T05:03:37.393Z,8.77
2022-10-10T05:06:04.106Z,7.30
2022-10-10T05:08:30.731Z,9.73
2022-10-10T05:10:57.492Z,10.33
2022-10-10T05:13:24.208Z,11.27
2022-10-10T05:15:51.961Z,10.63
2022-10-10T05:18:22.106Z,10.93
2022-10-10T05:20:48.866Z,9.90
2022-10-10T05:23:16.017Z,11.63
2022-10-10T05:25:48.055Z,9.73
2022-10-10T05:28:14.741Z,11.43
2022-10-10T05:30:41.458Z,9.53
2022-10-10T05:33:08.220Z,10.90
2022-10-10T05:35:34.876Z,11.60
2022-10-10T05:38:01.626Z,13.53
2022-10-10T05:40:28.353Z,10.17
2022-10-10T05:42:55.046Z,10.07
2022-10-10T05:45:21.737Z,9.93
2022-10-10T05:47:48.422Z,10.63
2022-10-10T05:50:38.697Z,9.80
2022-10-10T05:53:06.913Z,10.10
2022-10-10T05:55:33.808Z,7.40
2022-10-10T05:58:00.434Z,10.10
2022-10-10T06:00:27.141Z,12.20
2022-10-10T06:02:54.422Z,11.33
2022-10-10T06:05:21.376Z,8.30
2022-10-10T06:08:04.676Z,8.83
2022-10-10T06:10:37.332Z,10.80
2022-10-10T06:13:03.996Z,8.50
2022-10-10T06:15:30.786Z,11.00
2022-10-10T06:17:57.597Z,10.93
2022-10-10T06:20:24.262Z,12.20
2022-10-10T06:22:51.633Z,12.10
2022-10-10T06:25:38.438Z,9.63
2022-10-10T06:28:05.265Z,12.17
2022-10-10T06:30:32.275Z,11.70
2022-10-10T06:32:59.123Z,11.03
2022-10-10T06:35:26.146Z,12.70
2022-10-10T06:37:52.780Z,11.53
2022-10-10T06:40:19.412Z,13.87
2022-10-10T06:42:46.030Z,13.53
2022-10-10T06:45:12.649Z,11.10
2022-10-10T06:47:39.996Z,11.43
2022-10-10T06:50:06.806Z,12.67
2022-10-10T06:52:33.651Z,18.33
2022-10-10T06:55:00.296Z,21.30
2022-10-10T06:57:28.018Z,131.33
2022-10-10T06:59:54.629Z,316.43
2022-10-10T07:02:21.301Z,287.13
2022-10-10T07:04:47.947Z,266.55
2022-10-10T07:07:14.558Z,248.30
2022-10-10T07:09:41.226Z,225.23
2022-10-10T07:12:07.962Z,259.65
2022-10-10T07:14:34.534Z,307.85
2022-10-10T07:17:01.215Z,271.23
2022-10-10T07:19:28.119Z,246.68
2022-10-10T07:21:54.738Z,219.57
2022-10-10T07:24:21.378Z,154.25
2022-10-10T07:26:48.050Z,144.98
2022-10-10T07:29:14.747Z,81.03
2022-10-10T07:31:41.404Z,62.70
2022-10-10T07:34:08.097Z,54.53
2022-10-10T07:36:34.913Z,48.13
2022-10-10T07:39:01.545Z,42.50
2022-10-10T07:41:28.314Z,31.90
2022-10-10T07:43:56.099Z,19.73
2022-10-10T07:46:22.780Z,20.85
2022-10-10T07:48:49.452Z,10.68
2022-10-10T07:51:16.395Z,12.43
2022-10-10T07:53:44.415Z,9.82
2022-10-10T07:56:11.599Z,7.38
2022-10-10T07:58:38.388Z,5.32
2022-10-10T08:01:09.209Z,4.82
2022-10-10T08:03:36.210Z,4.80
2022-10-10T08:06:04.339Z,7.32
2022-10-10T08:08:34.130Z,4.85
2022-10-10T08:11:01.458Z,6.25
2022-10-10T08:13:28.132Z,4.07
2022-10-10T08:15:54.799Z,6.35
2022-10-10T08:18:21.502Z,4.85
2022-10-10T08:20:48.152Z,3.50
2022-10-10T08:23:14.797Z,7.03
2022-10-10T08:25:41.450Z,5.47
2022-10-10T08:28:08.149Z,7.10
2022-10-10T08:30:34.831Z,7.72
2022-10-10T08:33:01.720Z,4.50
2022-10-10T08:35:28.383Z,5.95
2022-10-10T08:37:55.243Z,6.03
2022-10-10T08:40:21.969Z,7.68
2022-10-10T08:42:52.992Z,6.88
2022-10-10T08:45:25.379Z,6.75
2022-10-10T08:48:00.295Z,7.35
2022-10-10T08:50:32.971Z,6.63
2022-10-10T08:53:06.386Z,7.72
2022-10-10T08:55:34.599Z,6.95
2022-10-10T08:58:03.353Z,8.32
2022-10-10T09:00:33.130Z,7.60
2022-10-10T09:03:01.575Z,10.85
2022-10-10T09:05:31.879Z,6.47
2022-10-10T09:08:37.223Z,6.65
2022-10-10T09:11:05.185Z,7.28
2022-10-10T09:13:36.830Z,7.40
2022-10-10T09:16:08.588Z,9.13
2022-10-10T09:18:46.420Z,6.43
2022-10-10T09:21:16.572Z,7.75
2022-10-10T09:23:59.922Z,8.98
2022-10-10T09:26:27.990Z,6.50
2022-10-10T09:29:04.853Z,8.38
2022-10-10T09:31:37.398Z,7.53
2022-10-10T09:34:31.096Z,9.23
2022-10-10T09:37:00.505Z,8.63
2022-10-10T09:39:37.693Z,8.27
2022-10-10T09:42:05.447Z,7.32
2022-10-10T09:44:32.146Z,8.43
2022-10-10T09:46:59.769Z,8.07
2022-10-10T09:49:26.411Z,7.97
2022-10-10T09:51:53.117Z,6.70
2022-10-10T09:54:20.085Z,5.40
2022-10-10T09:56:52.095Z,9.05
2022-10-10T09:59:42.517Z,10.45
2022-10-10T10:02:20.208Z,9.70
2022-10-10T10:04:47.656Z,9.80
2022-10-10T10:07:33.653Z,7.57
2022-10-10T10:10:21.360Z,6.93
2022-10-10T10:12:48.247Z,5.82
2022-10-10T10:15:25.454Z,10.88
2022-10-10T10:18:10.908Z,12.77
2022-10-10T10:20:39.649Z,7.85
2022-10-10T10:23:31.499Z,9.05
2022-10-10T10:26:06.518Z,9.77
2022-10-10T10:28:42.566Z,8.65
2022-10-10T10:31:20.672Z,7.53
2022-10-10T10:34:12.184Z,8.55
2022-10-10T10:36:41.742Z,7.82
2022-10-10T10:39:47.309Z,9.63
2022-10-10T10:42:29.181Z,9.10
2022-10-10T10:44:59.679Z,8.80
2022-10-10T10:47:57.591Z,6.97
2022-10-10T10:50:41.456Z,6.90
2022-10-10T10:53:29.991Z,8.18
2022-10-10T10:56:04.985Z,9.18
2022-10-10T10:59:24.101Z,10.07
2022-10-10T11:01:56.915Z,8.68
2022-10-10T11:05:22.783Z,7.43
2022-10-10T11:07:25.019Z,9.27
2022-10-10T11:10:08.828Z,7.25
2022-10-10T11:12:47.502Z,9.43
2022-10-10T11:15:20.987Z,7.65
2022-10-10T11:18:03.594Z,7.78
2022-10-10T11:20:36.990Z,9.23
2022-10-10T11:23:22.683Z,8.75
2022-10-10T11:25:50.462Z,8.05
2022-10-10T11:28:40.277Z,9.48
2022-10-10T11:31:28.334Z,16.42
2022-10-10T11:33:59.233Z,9.80
2022-10-10T11:36:29.025Z,8.73
2022-10-10T11:39:05.001Z,7.93
2022-10-10T11:41:34.674Z,11.70
2022-10-10T11:44:22.380Z,8.18
2022-10-10T11:47:07.552Z,9.55
2022-10-10T11:52:31.931Z,9.52
2022-10-10T11:55:09.399Z,7.68
2022-10-10T11:57:45.854Z,6.90
2022-10-10T12:00:17.033Z,6.72
2022-10-10T12:02:44.969Z,10.07
2022-10-10T12:05:25.781Z,9.85
2022-10-10T12:08:00.044Z,8.93
2022-10-10T12:10:44.378Z,14.18
2022-10-10T12:13:32.900Z,9.00
2022-10-10T12:16:03.381Z,9.07
2022-10-10T12:18:32.462Z,8.75
2022-10-10T12:21:04.314Z,10.02
2022-10-10T12:23:31.389Z,11.43
2022-10-10T12:25:58.370Z,7.97
2022-10-10T12:28:37.001Z,12.35
2022-10-10T12:31:06.523Z,8.43
2022-10-10T12:33:33.179Z,8.65
2022-10-10T12:36:41.377Z,12.20
2022-10-10T12:39:11.030Z,9.43
2022-10-10T12:41:47.226Z,10.43
2022-10-10T12:44:21.669Z,9.65
2022-10-10T12:46:51.353Z,8.52
2022-10-10T12:49:22.436Z,11.30
2022-10-10T12:52:12.583Z,12.27
2022-10-10T12:54:44.036Z,8.98
2022-10-10T12:57:46.362Z,7.72
2022-10-10T13:00:18.298Z,8.63
2022-10-10T13:02:46.928Z,8.55
2022-10-10T13:05:15.590Z,9.57
2022-10-10T13:07:42.536Z,10.55
2022-10-10T13:10:20.491Z,11.65
2022-10-10T13:12:47.169Z,9.27
2022-10-10T13:15:20.779Z,10.20
2022-10-10T13:17:47.435Z,9.95
2022-10-10T13:20:43.436Z,10.90
2022-10-10T13:23:14.182Z,11.20
2022-10-10T13:25:40.859Z,10.27
2022-10-10T13:28:18.189Z,13.55
2022-10-10T13:30:48.791Z,11.95
2022-10-10T13:33:19.335Z,10.65
2022-10-10T13:35:46.532Z,9.10
2022-10-10T13:38:13.755Z,8.18
2022-10-10T13:40:42.104Z,6.97
2022-10-10T13:43:16.081Z,9.90
2022-10-10T13:45:50.104Z,10.03
2022-10-10T13:48:20.653Z,11.80
2022-10-10T13:50:55.174Z,6.80
2022-10-10T13:53:28.899Z,8.38
2022-10-10T13:56:19.455Z,11.18
2022-10-10T13:58:56.186Z,9.07
2022-10-10T14:01:47.516Z,8.85
2022-10-10T14:04:52.384Z,10.93
2022-10-10T14:07:26.865Z,11.68
2022-10-10T14:09:59.745Z,8.85
2022-10-10T14:12:32.522Z,12.27
2022-10-10T14:15:00.067Z,9.15
2022-10-10T14:17:26.953Z,10.50
2022-10-10T14:19:53.726Z,9.98
2022-10-10T14:22:20.489Z,7.13
2022-10-10T14:24:47.470Z,6.30
2022-10-10T14:27:20.235Z,12.32
2022-10-10T14:29:47.023Z,8.02
2022-10-10T14:32:16.762Z,10.18
2022-10-10T14:34:43.535Z,10.23
2022-10-10T14:37:22.723Z,8.80
2022-10-10T14:39:49.601Z,9.55
2022-10-10T14:42:16.912Z,11.07
2022-10-10T14:44:43.718Z,10.35
2022-10-10T14:47:21.805Z,9.07
2022-10-10T14:49:48.682Z,8.07
2022-10-10T14:52:15.749Z,8.38
2022-10-10T14:54:42.439Z,9.25
2022-10-10T14:57:10.513Z,10.25
2022-10-10T14:59:47.407Z,8.95
2022-10-10T15:02:18.383Z,8.07
2022-10-10T15:04:45.171Z,7.55
2022-10-10T15:07:13.881Z,8.95
2022-10-10T15:09:51.514Z,7.32
2022-10-10T15:12:27.864Z,7.40
2022-10-10T15:14:54.592Z,7.18
2022-10-10T15:17:21.240Z,7.60
2022-10-10T15:19:47.869Z,11.07
2022-10-10T15:22:14.522Z,10.52
2022-10-10T15:24:41.193Z,8.82
2022-10-10T15:27:07.829Z,8.65
2022-10-10T15:29:34.623Z,7.45
2022-10-10T15:32:01.991Z,10.93
2022-10-10T15:34:28.688Z,6.72
2022-10-10T15:36:55.366Z,8.52
2022-10-10T15:39:22.080Z,8.43
2022-10-10T15:41:48.691Z,6.97
2022-10-10T15:44:17.407Z,9.43
2022-10-10T15:46:44.554Z,9.65
2022-10-10T15:49:11.492Z,11.20
2022-10-10T15:51:38.180Z,36.15
2022-10-10T15:54:04.913Z,10.45
2022-10-10T15:56:31.539Z,14.82
2022-10-10T15:58:58.695Z,18.33
2022-10-10T16:01:25.657Z,17.23
2022-10-10T16:03:52.363Z,9.43
2022-10-10T16:06:19.888Z,10.55
2022-10-10T16:08:52.757Z,11.38
2022-10-10T16:11:30.871Z,8.65
2022-10-10T16:13:59.212Z,7.72
2022-10-10T16:16:25.812Z,9.50
2022-10-10T16:18:52.450Z,10.88
2022-10-10T16:21:20.738Z,8.50
2022-10-10T16:23:47.776Z,7.45
2022-10-10T16:26:17.352Z,7.47
2022-10-10T16:28:44.137Z,9.65
2022-10-10T16:31:12.830Z,7.47
2022-10-10T16:33:39.646Z,6.57
2022-10-10T16:36:13.677Z,6.47
2022-10-10T16:38:40.385Z,8.47
2022-10-10T16:41:15.962Z,21.02
2022-10-10T16:43:50.534Z,45.33
2022-10-10T16:46:20.315Z,91.80
2022-10-10T16:48:47.034Z,20.08
2022-10-10T16:51:15.820Z,88.93
2022-10-10T16:53:42.581Z,11.90
2022-10-10T16:56:11.787Z,47.03
2022-10-10T16:58:38.998Z,106.15
2022-10-10T17:01:14.263Z,98.25
2022-10-10T17:03:41.175Z,327.25
2022-10-10T17:06:15.982Z,85.05
2022-10-10T17:08:45.221Z,39.22
2022-10-10T17:11:11.940Z,12.80
2022-10-10T17:13:38.781Z,17.58
2022-10-10T17:16:34.101Z,7.50
2022-10-10T17:18:53.385Z,13.55
2022-10-10T17:21:21.713Z,30.77
2022-10-10T17:23:50.658Z,13.65
2022-10-10T17:26:22.542Z,22.85
2022-10-10T17:28:50.160Z,8.38
2022-10-10T17:31:17.525Z,40.40
2022-10-10T17:33:49.721Z,52.97
2022-10-10T17:36:22.317Z,15.25
2022-10-10T17:38:49.034Z,65.68
2022-10-10T17:41:16.694Z,9.23
2022-10-10T17:43:43.555Z,10.82
2022-10-10T17:46:34.468Z,11.38
2022-10-10T17:49:03.453Z,13.77
2022-10-10T17:51:30.118Z,13.50
2022-10-10T17:53:59.036Z,10.90
2022-10-10T17:56:25.651Z,15.88
2022-10-10T17:58:52.279Z,16.00
2022-10-10T18:01:19.449Z,11.25
2022-10-10T18:03:46.325Z,12.07
2022-10-10T18:06:14.883Z,15.18
2022-10-10T18:08:43.995Z,11.00
2022-10-10T18:11:18.726Z,10.40
2022-10-10T18:13:45.420Z,8.80
2022-10-10T18:16:13.744Z,6.88
2022-10-10T18:18:41.275Z,14.60
2022-10-10T18:21:08.511Z,11.18
2022-10-10T18:23:35.386Z,18.20
2022-10-10T18:26:05.975Z,11.90
2022-10-10T18:28:33.610Z,8.68
2022-10-10T18:31:00.831Z,10.68
2022-10-10T18:33:27.541Z,8.27
2022-10-10T18:35:54.151Z,6.85
2022-10-10T18:38:20.774Z,9.80
2022-10-10T18:40:47.506Z,13.38
2022-10-10T18:43:14.118Z,9.95
2022-10-10T18:45:40.759Z,7.47
2022-10-10T18:48:07.445Z,9.07
2022-10-10T18:50:34.111Z,6.22
2022-10-10T18:53:00.727Z,8.98
2022-10-10T18:55:30.455Z,7.53
2022-10-10T18:57:57.998Z,7.53
2022-10-10T19:00:27.575Z,9.90
2022-10-10T19:02:54.268Z,7.43
2022-10-10T19:05:20.846Z,6.55
2022-10-10T19:07:47.503Z,11.32
2022-10-10T19:10:14.126Z,9.15
2022-10-10T19:12:45.140Z,9.10
2022-10-10T19:15:14.924Z,8.43
2022-10-10T19:17:41.524Z,7.25
2022-10-10T19:20:08.473Z,9.82
2022-10-10T19:22:35.203Z,8.77
2022-10-10T19:25:03.021Z,7.63
2022-10-10T19:27:29.695Z,8.77
2022-10-10T19:29:56.339Z,10.60
2022-10-10T19:32:22.988Z,7.50
2022-10-10T19:34:49.653Z,8.13
2022-10-10T19:37:16.549Z,8.30
2022-10-10T19:39:43.287Z,10.25
2022-10-10T19:42:09.857Z,7.85
2022-10-10T19:44:36.624Z,7.50
2022-10-10T19:47:03.329Z,8.77
2022-10-10T19:49:30.636Z,7.85
2022-10-10T19:51:57.305Z,9.10
2022-10-10T19:54:24.165Z,8.00
2022-10-10T19:56:51.046Z,8.20
2022-10-10T19:59:17.807Z,6.45
2022-10-10T20:01:44.505Z,8.40
2022-10-10T20:04:12.106Z,7.53
2022-10-10T20:06:41.212Z,6.53
2022-10-10T20:09:10.827Z,8.55
2022-10-10T20:11:38.216Z,9.00
2022-10-10T20:14:05.009Z,6.38
2022-10-10T20:16:31.718Z,8.10
2022-10-10T20:18:58.665Z,8.05
2022-10-10T20:21:31.500Z,5.45
2022-10-10T20:24:00.039Z,7.32
2022-10-10T20:26:26.917Z,6.18
2022-10-10T20:28:54.112Z,9.93
2022-10-10T20:31:25.451Z,9.35
2022-10-10T20:33:53.641Z,9.43
2022-10-10T20:36:20.784Z,7.60
2022-10-10T20:38:57.981Z,7.43
2022-10-10T20:41:25.934Z,8.50
2022-10-10T20:43:59.361Z,7.00
2022-10-10T20:46:27.665Z,7.50
2022-10-10T20:48:54.992Z,7.70
2022-10-10T20:51:21.693Z,5.97
2022-10-10T20:53:57.535Z,6.65
2022-10-10T20:56:24.292Z,6.60
2022-10-10T20:58:50.896Z,6.68
2022-10-10T21:01:18.687Z,8.15
2022-10-10T21:03:46.300Z,8.63
2022-10-10T21:06:23.781Z,6.00
2022-10-10T21:08:51.216Z,6.80
2022-10-10T21:11:18.045Z,6.65
2022-10-10T21:13:45.851Z,8.23
2022-10-10T21:16:15.590Z,8.50
2022-10-10T21:18:44.507Z,7.10
2022-10-10T21:21:16.477Z,5.93
2022-10-10T21:23:44.921Z,5.68
2022-10-10T21:26:19.205Z,6.55
2022-10-10T21:28:48.600Z,7.82
2022-10-10T21:31:16.266Z,5.38
2022-10-10T21:33:43.081Z,6.20
2022-10-10T21:36:10.276Z,6.30
2022-10-10T21:38:37.786Z,7.35
2022-10-10T21:41:08.745Z,8.07
2022-10-10T21:43:40.277Z,6.57
2022-10-10T21:46:08.603Z,7.63
2022-10-10T21:48:35.374Z,6.63
2022-10-10T21:51:02.099Z,6.65
2022-10-10T21:53:28.911Z,9.90
2022-10-10T21:55:55.786Z,6.90
2022-10-10T21:58:25.618Z,8.40
2022-10-10T22:00:52.259Z,8.48
2022-10-10T22:03:18.906Z,6.40
2022-10-10T22:05:45.569Z,5.68
2022-10-10T22:08:12.183Z,6.57
2022-10-10T22:10:40.467Z,7.05
2022-10-10T22:13:07.120Z,6.35
2022-10-10T22:15:33.871Z,5.43
2022-10-10T22:18:00.459Z,4.82
2022-10-10T22:20:27.083Z,5.82
2022-10-10T22:22:53.681Z,6.53
2022-10-10T22:25:20.438Z,7.03
2022-10-10T22:27:47.061Z,6.75
2022-10-10T22:30:14.103Z,6.22
2022-10-10T22:32:40.763Z,5.65
2022-10-10T22:35:08.256Z,6.43
2022-10-10T22:37:36.553Z,6.97
2022-10-10T22:40:03.471Z,5.32
2022-10-10T22:42:30.078Z,5.65
2022-10-10T22:44:56.721Z,7.15
2022-10-10T22:47:23.385Z,5.03
2022-10-10T22:49:49.985Z,5.88
2022-10-10T22:52:16.594Z,6.18
2022-10-10T22:54:43.289Z,6.10
2022-10-10T22:57:09.885Z,8.88
2022-10-10T22:59:36.655Z,5.75
2022-10-10T23:02:03.314Z,6.32
2022-10-10T23:04:30.077Z,6.22
2022-10-10T23:06:56.717Z,4.90
2022-10-10T23:09:23.357Z,5.85
2022-10-10T23:11:49.996Z,5.05
2022-10-10T23:14:18.723Z,5.85
2022-10-10T23:16:45.424Z,7.03
2022-10-10T23:19:12.014Z,6.18
2022-10-10T23:21:38.636Z,6.00
2022-10-10T23:24:05.664Z,4.82
2022-10-10T23:26:32.376Z,4.65
2022-10-10T23:28:59.063Z,6.95
2022-10-10T23:31:25.686Z,5.07
2022-10-10T23:33:52.349Z,4.75
2022-10-10T23:36:19.012Z,4.32
2022-10-10T23:38:45.655Z,5.20
2022-10-10T23:41:12.495Z,7.03
2022-10-10T23:43:39.236Z,4.50
2022-10-10T23:46:06.425Z,6.45
2022-10-10T23:48:33.453Z,5.40
2022-10-10T23:51:00.072Z,5.90
2022-10-10T23:53:26.645Z,4.68
2022-10-10T23:55:53.297Z,4.38
2022-10-10T23:58:19.960Z,4.05
